Terminal Aerodrome Forecast
Issued by NWS

Home | Current Version | Previous Version | Text Only | Print | Product List | Glossary On
Versions: 1 2 3 4 5 6 7 8 9 10 11 12 13 14 15
398
FTUS45 KTFX 281132
TAFHVR
TAF
KHVR 281132Z 2812/2912 04008KT P6SM SCT090
     FM282100 10013KT P6SM FEW150
     FM290100 09008KT P6SM FEW150=

USA.gov is the U.S. government's official web portal to all federal, state and local government web resources and services.